Time;durP1;ratioP1;P1;durP2;ratioP2;P2;SDS_P1;SDS_P2;PMS_P1;PMS_P2;Temp;Humidity;BMP_temperature;BMP_pressure;BME280_temperature;BME280_humidity;BME280_pressure;Samples;Min_cycle;Max_cycle;Signal;HPM_P1;HPM_P2
2021/12/26 00:02:41;;;;;;;54.97;32.53;;;;;;;;;;6163592;28;20129;-66
2021/12/26 00:05:43;;;;;;;56.03;32.40;;;;;;;;;;6175118;28;20147;-66
2021/12/26 00:08:46;;;;;;;57.08;32.72;;;;;;;;;;6215916;28;20515;-66
2021/12/26 00:11:47;;;;;;;57.17;30.67;;;;;;;;;;6210024;28;20140;-66
2021/12/26 00:14:49;;;;;;;55.40;31.98;;;;;;;;;;6205710;28;20120;-66
2021/12/26 00:17:52;;;;;;;54.75;32.65;;;;;;;;;;6167555;28;20074;-66
2021/12/26 00:20:54;;;;;;;55.83;32.65;;;;;;;;;;6169787;28;20078;-66
2021/12/26 00:23:58;;;;;;;58.83;32.78;;;;;;;;;;6185193;28;20055;-65
2021/12/26 00:27:00;;;;;;;56.38;32.78;;;;;;;;;;6176237;28;20077;-66
2021/12/26 00:30:02;;;;;;;51.85;31.42;;;;;;;;;;6214643;28;20060;-66
2021/12/26 00:33:05;;;;;;;57.50;33.33;;;;;;;;;;6190998;28;20187;-66
2021/12/26 00:36:07;;;;;;;55.35;32.17;;;;;;;;;;6201959;28;20057;-66
2021/12/26 00:39:09;;;;;;;53.25;31.83;;;;;;;;;;6214069;28;20113;-66
2021/12/26 00:42:11;;;;;;;54.67;32.90;;;;;;;;;;6213431;28;20054;-65
2021/12/26 00:45:13;;;;;;;53.35;32.63;;;;;;;;;;6208370;28;21618;-67
2021/12/26 00:48:16;;;;;;;54.70;31.42;;;;;;;;;;6203966;28;20042;-66
2021/12/26 00:51:17;;;;;;;53.50;31.63;;;;;;;;;;6192431;28;20176;-67
2021/12/26 00:54:20;;;;;;;54.13;31.33;;;;;;;;;;6186733;28;20459;-66
2021/12/26 00:57:22;;;;;;;49.58;29.90;;;;;;;;;;6177594;28;20072;-66
2021/12/26 01:00:25;;;;;;;53.22;31.38;;;;;;;;;;6188014;28;20128;-66
2021/12/26 01:03:28;;;;;;;52.85;31.27;;;;;;;;;;6208533;28;20452;-66
2021/12/26 01:06:30;;;;;;;53.50;32.75;;;;;;;;;;6172338;28;20165;-66
2021/12/26 01:09:31;;;;;;;51.78;31.13;;;;;;;;;;6187685;28;20080;-66
2021/12/26 01:12:34;;;;;;;57.83;32.25;;;;;;;;;;6192952;28;20125;-66
2021/12/26 01:15:36;;;;;;;53.42;31.48;;;;;;;;;;6185204;28;20066;-65
2021/12/26 01:18:41;;;;;;;53.88;33.38;;;;;;;;;;6190357;28;20204;-66
2021/12/26 01:21:44;;;;;;;56.15;33.00;;;;;;;;;;6189482;28;20072;-66
2021/12/26 01:24:48;;;;;;;60.35;35.60;;;;;;;;;;6195411;28;20042;-66
2021/12/26 01:27:49;;;;;;;57.63;35.55;;;;;;;;;;6191818;28;20038;-66
2021/12/26 01:30:51;;;;;;;56.90;34.80;;;;;;;;;;6187082;28;20536;-66
2021/12/26 01:33:57;;;;;;;63.45;35.00;;;;;;;;;;6188644;28;20168;-66
2021/12/26 01:36:58;;;;;;;60.05;35.75;;;;;;;;;;6207460;28;20144;-65
2021/12/26 01:40:00;;;;;;;58.95;33.92;;;;;;;;;;6217007;28;20136;-65
2021/12/26 01:43:03;;;;;;;61.75;35.55;;;;;;;;;;6206493;28;20053;-66
2021/12/26 01:46:05;;;;;;;57.63;35.10;;;;;;;;;;6209271;28;20579;-66
2021/12/26 01:49:10;;;;;;;57.63;36.88;;;;;;;;;;6221919;28;20627;-65
2021/12/26 01:52:12;;;;;;;61.65;35.75;;;;;;;;;;6208289;28;20131;-65
2021/12/26 01:55:23;;;;;;;54.38;34.40;;;;;;;;;;6209196;28;20117;-66
2021/12/26 01:58:29;;;;;;;58.97;36.42;;;;;;;;;;6215777;28;20067;-65
2021/12/26 02:01:31;;;;;;;56.08;35.50;;;;;;;;;;6208276;28;20115;-66
2021/12/26 02:04:37;;;;;;;57.60;36.33;;;;;;;;;;6219596;28;20171;-65
2021/12/26 02:07:39;;;;;;;64.03;38.17;;;;;;;;;;6209601;28;20183;-66
2021/12/26 02:10:41;;;;;;;60.13;37.70;;;;;;;;;;6208889;28;20073;-66
2021/12/26 02:13:43;;;;;;;60.17;36.95;;;;;;;;;;6223366;28;20074;-65
2021/12/26 02:16:45;;;;;;;56.33;35.10;;;;;;;;;;6203614;28;20139;-66
2021/12/26 02:19:49;;;;;;;59.42;37.50;;;;;;;;;;6216630;28;20128;-65
2021/12/26 02:22:57;;;;;;;63.90;37.67;;;;;;;;;;6188872;28;20061;-65
2021/12/26 02:29:18;;;;;;;64.43;38.00;;;;;;;;;;6185244;28;20046;-65
2021/12/26 02:32:19;;;;;;;67.05;38.22;;;;;;;;;;6171680;28;20193;-66
2021/12/26 02:35:23;;;;;;;67.32;37.63;;;;;;;;;;6177605;28;20593;-66
2021/12/26 02:38:25;;;;;;;60.42;37.95;;;;;;;;;;6187759;28;20061;-65
2021/12/26 02:41:26;;;;;;;65.35;38.80;;;;;;;;;;6171878;28;20129;-66
2021/12/26 02:44:28;;;;;;;62.85;38.38;;;;;;;;;;6188107;28;20077;-65
2021/12/26 02:47:31;;;;;;;61.13;37.10;;;;;;;;;;6198499;28;20077;-65
2021/12/26 02:50:34;;;;;;;58.53;35.67;;;;;;;;;;6207439;28;20045;-66
2021/12/26 02:53:36;;;;;;;59.65;36.38;;;;;;;;;;6226369;28;20088;-65
2021/12/26 02:56:38;;;;;;;62.22;36.63;;;;;;;;;;6203474;28;20089;-65
2021/12/26 02:59:39;;;;;;;61.58;36.60;;;;;;;;;;6219437;28;20569;-65
2021/12/26 03:02:41;;;;;;;64.07;37.95;;;;;;;;;;6201458;28;20088;-65
2021/12/26 03:05:47;;;;;;;69.15;38.13;;;;;;;;;;6210384;28;20357;-66
2021/12/26 03:08:51;;;;;;;61.08;36.33;;;;;;;;;;6220850;28;20419;-65
2021/12/26 03:11:52;;;;;;;67.10;37.58;;;;;;;;;;6218763;28;20057;-65
2021/12/26 03:14:54;;;;;;;61.30;36.55;;;;;;;;;;6228169;28;20529;-66
2021/12/26 03:17:56;;;;;;;61.15;36.28;;;;;;;;;;6173424;28;20129;-65
2021/12/26 03:20:59;;;;;;;60.97;35.80;;;;;;;;;;6178141;28;20132;-65
2021/12/26 03:24:01;;;;;;;60.78;35.72;;;;;;;;;;6193812;28;20188;-65
2021/12/26 03:27:04;;;;;;;59.67;36.30;;;;;;;;;;6182254;28;20148;-65
2021/12/26 03:30:07;;;;;;;64.00;38.43;;;;;;;;;;6189243;28;20697;-65
2021/12/26 03:33:11;;;;;;;67.95;38.53;;;;;;;;;;6174903;28;20097;-65
2021/12/26 03:36:14;;;;;;;65.28;38.28;;;;;;;;;;6191748;28;20073;-65
2021/12/26 03:39:15;;;;;;;65.28;37.55;;;;;;;;;;6214837;28;20128;-66
2021/12/26 03:42:21;;;;;;;67.28;38.60;;;;;;;;;;6208515;28;20049;-65
2021/12/26 03:45:23;;;;;;;62.80;38.95;;;;;;;;;;6211993;28;20433;-66
2021/12/26 03:48:26;;;;;;;64.80;37.38;;;;;;;;;;6219551;28;20128;-66
2021/12/26 03:51:29;;;;;;;62.90;39.87;;;;;;;;;;6203498;28;20513;-65
2021/12/26 03:54:31;;;;;;;65.55;37.60;;;;;;;;;;6215790;28;20082;-65
2021/12/26 03:57:32;;;;;;;65.60;38.83;;;;;;;;;;6208698;28;20082;-65
2021/12/26 04:00:35;;;;;;;63.78;37.95;;;;;;;;;;6211638;28;20137;-65
2021/12/26 04:03:37;;;;;;;64.75;38.42;;;;;;;;;;6212071;28;20053;-66
2021/12/26 04:06:40;;;;;;;62.85;37.47;;;;;;;;;;6212759;28;20050;-65
2021/12/26 04:09:42;;;;;;;63.40;37.47;;;;;;;;;;6222565;28;20134;-65
2021/12/26 04:12:46;;;;;;;61.50;39.03;;;;;;;;;;6211855;28;20165;-65
2021/12/26 04:15:48;;;;;;;62.90;37.70;;;;;;;;;;6204171;28;20045;-65
2021/12/26 04:18:50;;;;;;;61.92;37.13;;;;;;;;;;6185917;28;20103;-65
2021/12/26 04:21:53;;;;;;;62.75;37.90;;;;;;;;;;6184869;28;20098;-65
2021/12/26 04:24:54;;;;;;;58.15;35.30;;;;;;;;;;6191437;28;20256;-65
2021/12/26 04:27:56;;;;;;;62.55;37.28;;;;;;;;;;6188625;28;20125;-66
2021/12/26 04:30:58;;;;;;;66.82;38.35;;;;;;;;;;6207040;28;20045;-65
2021/12/26 04:34:00;;;;;;;58.30;35.38;;;;;;;;;;6215761;28;20073;-65
2021/12/26 04:37:03;;;;;;;58.47;36.03;;;;;;;;;;6217250;28;20177;-65
2021/12/26 04:40:07;;;;;;;61.15;37.22;;;;;;;;;;6229173;28;20052;-66
2021/12/26 04:43:09;;;;;;;;;;;;;;;;;;6219778;28;20048;-66
2021/12/26 04:46:11;;;;;;;54.15;34.17;;;;;;;;;;6200281;28;19964;-66
2021/12/26 04:49:13;;;;;;;55.78;34.55;;;;;;;;;;6223766;28;22241;-66
2021/12/26 04:52:16;;;;;;;57.83;35.22;;;;;;;;;;6214991;28;20096;-66
2021/12/26 04:55:20;;;;;;;54.28;34.40;;;;;;;;;;6214707;28;20088;-66
2021/12/26 04:58:21;;;;;;;60.40;36.50;;;;;;;;;;6230088;28;23573;-67
2021/12/26 05:01:23;;;;;;;55.38;34.15;;;;;;;;;;6212008;28;20134;-66
2021/12/26 05:04:24;;;;;;;54.92;33.97;;;;;;;;;;6227238;28;20045;-66
2021/12/26 05:07:27;;;;;;;54.38;34.92;;;;;;;;;;6214355;28;20089;-66
2021/12/26 05:10:29;;;;;;;59.28;35.20;;;;;;;;;;6216519;28;21120;-66
2021/12/26 05:13:31;;;;;;;54.85;33.28;;;;;;;;;;6227198;28;20256;-66
2021/12/26 05:16:33;;;;;;;55.35;33.58;;;;;;;;;;6210284;28;20597;-66
2021/12/26 05:19:34;;;;;;;56.55;34.65;;;;;;;;;;6222248;28;20053;-66
2021/12/26 05:22:38;;;;;;;50.97;32.80;;;;;;;;;;6214403;28;20137;-66
2021/12/26 05:25:39;;;;;;;54.97;33.15;;;;;;;;;;6214069;28;20084;-66
2021/12/26 05:28:41;;;;;;;52.95;33.03;;;;;;;;;;6231158;28;20069;-66
2021/12/26 05:31:43;;;;;;;51.50;32.83;;;;;;;;;;6208418;28;20048;-66
2021/12/26 05:34:44;;;;;;;48.78;32.10;;;;;;;;;;6218733;28;20120;-66
2021/12/26 05:37:47;;;;;;;51.95;31.05;;;;;;;;;;6207644;28;20674;-65
2021/12/26 05:40:49;;;;;;;52.15;32.60;;;;;;;;;;6211521;28;20038;-66
2021/12/26 05:43:51;;;;;;;54.70;31.67;;;;;;;;;;6211320;28;20153;-66
2021/12/26 05:46:52;;;;;;;53.38;33.08;;;;;;;;;;6182839;28;20133;-66
2021/12/26 05:49:55;;;;;;;52.47;32.47;;;;;;;;;;6191885;28;20078;-66
2021/12/26 05:52:58;;;;;;;54.97;32.35;;;;;;;;;;6179097;28;20042;-65
2021/12/26 05:55:59;;;;;;;53.42;32.80;;;;;;;;;;6183630;28;21011;-65
2021/12/26 05:59:01;;;;;;;57.35;33.75;;;;;;;;;;6196720;28;20050;-65
2021/12/26 06:02:03;;;;;;;57.42;32.05;;;;;;;;;;6178090;28;20042;-65
2021/12/26 06:05:05;;;;;;;53.10;34.00;;;;;;;;;;6191793;28;20133;-66
2021/12/26 06:08:08;;;;;;;52.92;32.42;;;;;;;;;;6216702;28;20486;-65
2021/12/26 06:11:10;;;;;;;53.80;32.67;;;;;;;;;;6215736;28;20501;-66
2021/12/26 06:14:12;;;;;;;49.92;31.63;;;;;;;;;;6224992;28;20072;-65
2021/12/26 06:17:13;;;;;;;53.85;33.63;;;;;;;;;;6214839;28;20627;-66
2021/12/26 06:20:15;;;;;;;54.78;31.90;;;;;;;;;;6198137;28;20947;-65
2021/12/26 06:23:18;;;;;;;51.65;32.28;;;;;;;;;;6224356;28;20139;-66
2021/12/26 06:26:20;;;;;;;56.90;32.33;;;;;;;;;;6221645;28;20177;-65
2021/12/26 06:29:22;;;;;;;51.65;33.05;;;;;;;;;;6231433;28;20068;-66
2021/12/26 06:32:23;;;;;;;54.58;31.35;;;;;;;;;;6193584;28;20046;-66
2021/12/26 06:35:25;;;;;;;58.13;34.40;;;;;;;;;;6182185;28;20125;-66
2021/12/26 06:38:28;;;;;;;54.75;32.83;;;;;;;;;;6192188;28;20177;-66
2021/12/26 06:41:30;;;;;;;52.83;33.03;;;;;;;;;;6185900;28;20054;-65
2021/12/26 06:44:31;;;;;;;50.90;31.85;;;;;;;;;;6193787;28;20468;-66
2021/12/26 06:47:33;;;;;;;52.05;31.55;;;;;;;;;;6176436;28;20808;-65
2021/12/26 06:50:36;;;;;;;51.80;31.70;;;;;;;;;;6178504;28;20052;-66
2021/12/26 06:53:39;;;;;;;58.97;33.83;;;;;;;;;;6194887;28;20399;-65
2021/12/26 06:56:41;;;;;;;53.42;32.67;;;;;;;;;;6179674;28;20050;-66
2021/12/26 06:59:42;;;;;;;53.70;33.15;;;;;;;;;;6191674;28;20046;-66
2021/12/26 07:02:44;;;;;;;58.58;33.30;;;;;;;;;;6174082;28;20193;-66
2021/12/26 07:05:46;;;;;;;58.13;30.73;;;;;;;;;;6206243;28;20576;-66
2021/12/26 07:08:49;;;;;;;59.72;33.10;;;;;;;;;;6213797;28;20133;-66
2021/12/26 07:11:50;;;;;;;56.85;31.88;;;;;;;;;;6211475;28;20132;-66
2021/12/26 07:14:52;;;;;;;51.72;31.23;;;;;;;;;;6228413;28;20132;-66
2021/12/26 07:17:53;;;;;;;55.72;32.75;;;;;;;;;;6196417;28;20124;-65
2021/12/26 07:20:55;;;;;;;59.10;32.60;;;;;;;;;;6186600;28;20184;-65
2021/12/26 07:23:58;;;;;;;53.28;32.50;;;;;;;;;;6195951;28;20073;-65
2021/12/26 07:26:59;;;;;;;53.88;32.53;;;;;;;;;;6185607;28;20148;-65
2021/12/26 07:30:03;;;;;;;54.25;31.70;;;;;;;;;;6218590;28;20055;-65
2021/12/26 07:33:05;;;;;;;57.87;32.03;;;;;;;;;;6182001;28;20054;-65
2021/12/26 07:36:07;;;;;;;61.03;31.63;;;;;;;;;;6196337;28;20601;-65
2021/12/26 07:39:09;;;;;;;56.75;32.08;;;;;;;;;;6197533;28;20494;-65
2021/12/26 07:42:11;;;;;;;53.53;32.10;;;;;;;;;;6186502;28;20046;-65
2021/12/26 07:45:13;;;;;;;55.53;30.42;;;;;;;;;;6189410;28;20446;-66
2021/12/26 07:48:14;;;;;;;48.63;29.30;;;;;;;;;;6218920;28;20132;-65
2021/12/26 07:51:18;;;;;;;45.38;30.00;;;;;;;;;;6208384;28;20045;-66
2021/12/26 07:54:23;;;;;;;51.90;28.00;;;;;;;;;;6203022;28;20055;-65
2021/12/26 07:57:24;;;;;;;47.80;27.40;;;;;;;;;;6200521;28;20128;-65
2021/12/26 08:00:26;;;;;;;43.55;26.85;;;;;;;;;;6204504;28;20128;-66
2021/12/26 08:03:27;;;;;;;43.08;26.98;;;;;;;;;;6194388;28;20133;-65
2021/12/26 08:06:30;;;;;;;43.67;28.38;;;;;;;;;;6185734;28;20774;-66
2021/12/26 08:09:33;;;;;;;44.28;26.67;;;;;;;;;;6199160;28;20103;-66
2021/12/26 08:12:35;;;;;;;43.17;26.27;;;;;;;;;;6184762;28;20124;-65
2021/12/26 08:15:37;;;;;;;41.28;26.05;;;;;;;;;;6185455;28;20217;-66
2021/12/26 08:18:38;;;;;;;43.33;25.73;;;;;;;;;;6194054;28;20128;-65
2021/12/26 08:21:40;;;;;;;41.30;26.55;;;;;;;;;;6195613;28;20120;-65
2021/12/26 08:24:43;;;;;;;40.17;26.00;;;;;;;;;;6193453;28;20176;-66
2021/12/26 08:27:44;;;;;;;38.78;24.83;;;;;;;;;;6184628;28;20137;-66
2021/12/26 08:30:47;;;;;;;38.20;23.77;;;;;;;;;;6197553;28;20133;-66
2021/12/26 08:33:49;;;;;;;37.25;24.27;;;;;;;;;;6207008;28;20172;-65
2021/12/26 08:36:58;;;;;;;38.15;24.50;;;;;;;;;;6216159;28;20061;-66
2021/12/26 08:40:01;;;;;;;37.72;24.27;;;;;;;;;;6204921;28;20140;-66
2021/12/26 08:43:02;;;;;;;36.00;24.25;;;;;;;;;;6190769;28;20081;-66
2021/12/26 08:46:04;;;;;;;35.60;23.27;;;;;;;;;;6178639;28;20530;-66
2021/12/26 08:49:06;;;;;;;35.40;23.02;;;;;;;;;;6199336;28;21431;-66
2021/12/26 08:52:09;;;;;;;36.13;22.65;;;;;;;;;;6182255;28;20046;-65
2021/12/26 08:55:12;;;;;;;35.88;23.70;;;;;;;;;;6189184;28;20120;-66
2021/12/26 08:58:13;;;;;;;37.03;24.25;;;;;;;;;;6210527;28;20188;-65
2021/12/26 09:01:15;;;;;;;33.85;23.05;;;;;;;;;;6214574;28;20629;-66
2021/12/26 09:04:16;;;;;;;36.80;23.88;;;;;;;;;;6191914;28;20140;-66
2021/12/26 09:07:18;;;;;;;32.35;22.40;;;;;;;;;;6201889;28;20078;-66
2021/12/26 09:10:21;;;;;;;32.15;22.45;;;;;;;;;;6221786;28;20070;-66
2021/12/26 09:13:23;;;;;;;31.83;21.42;;;;;;;;;;6227816;28;20119;-66
2021/12/26 09:16:25;;;;;;;29.33;20.83;;;;;;;;;;6213788;28;20069;-66
2021/12/26 09:19:28;;;;;;;31.25;20.83;;;;;;;;;;6220805;28;20534;-66
2021/12/26 09:22:29;;;;;;;31.30;20.75;;;;;;;;;;6209451;28;20064;-66
2021/12/26 09:25:32;;;;;;;29.63;19.60;;;;;;;;;;6196158;28;20108;-66
2021/12/26 09:28:36;;;;;;;28.38;19.67;;;;;;;;;;6203884;28;20176;-66
2021/12/26 09:31:37;;;;;;;29.20;20.67;;;;;;;;;;6207737;28;20053;-66
2021/12/26 09:34:39;;;;;;;31.92;21.02;;;;;;;;;;6199421;28;20516;-66
2021/12/26 09:37:40;;;;;;;30.10;20.88;;;;;;;;;;6211135;28;20074;-67
2021/12/26 09:40:44;;;;;;;32.28;21.83;;;;;;;;;;6197944;28;20248;-66
2021/12/26 09:43:45;;;;;;;31.55;21.45;;;;;;;;;;6227257;28;20069;-66
2021/12/26 09:46:47;;;;;;;30.73;21.10;;;;;;;;;;6206350;28;20501;-66
2021/12/26 09:49:49;;;;;;;30.02;21.08;;;;;;;;;;6215798;28;20177;-65
2021/12/26 09:52:53;;;;;;;34.03;22.63;;;;;;;;;;6181646;28;20054;-65
2021/12/26 09:55:56;;;;;;;30.77;22.23;;;;;;;;;;6182792;28;20043;-66
2021/12/26 09:59:00;;;;;;;31.17;21.48;;;;;;;;;;6191144;28;20486;-66
2021/12/26 10:02:08;;;;;;;34.10;21.58;;;;;;;;;;6174760;28;20057;-65
2021/12/26 10:05:10;;;;;;;33.40;22.65;;;;;;;;;;6189265;28;20128;-66
2021/12/26 10:08:12;;;;;;;30.45;21.55;;;;;;;;;;6191412;28;20106;-65
2021/12/26 10:11:16;;;;;;;32.78;21.33;;;;;;;;;;6225593;28;20572;-65
2021/12/26 10:14:19;;;;;;;29.58;21.40;;;;;;;;;;6226170;28;20077;-66
2021/12/26 10:17:26;;;;;;;30.17;21.40;;;;;;;;;;6208076;28;20054;-66
2021/12/26 10:20:34;;;;;;;33.08;22.15;;;;;;;;;;6213162;28;20156;-67
2021/12/26 10:23:36;;;;;;;32.53;24.33;;;;;;;;;;6222188;28;20077;-66
2021/12/26 10:26:40;;;;;;;33.35;24.85;;;;;;;;;;6216686;28;20537;-66
2021/12/26 10:29:43;;;;;;;32.65;23.70;;;;;;;;;;6222698;28;20148;-65
2021/12/26 10:32:45;;;;;;;35.03;24.23;;;;;;;;;;6199173;28;20399;-64
2021/12/26 10:35:47;;;;;;;32.92;25.48;;;;;;;;;;6184636;28;20057;-65
2021/12/26 10:39:07;;;;;;;31.33;24.48;;;;;;;;;;6194366;28;20176;-65
2021/12/26 10:42:13;;;;;;;35.38;24.92;;;;;;;;;;6188870;28;20132;-65
2021/12/26 10:45:16;;;;;;;33.75;25.08;;;;;;;;;;6189674;28;20124;-65
2021/12/26 10:48:25;;;;;;;32.80;25.10;;;;;;;;;;6181623;28;20038;-66
2021/12/26 10:51:33;;;;;;;33.50;25.58;;;;;;;;;;6217645;28;20124;-65
2021/12/26 10:54:35;;;;;;;35.85;25.58;;;;;;;;;;6216599;28;20518;-65
2021/12/26 10:57:40;;;;;;;34.20;26.38;;;;;;;;;;6209390;28;20057;-65
2021/12/26 11:00:44;;;;;;;32.97;25.15;;;;;;;;;;6187304;28;20077;-65
2021/12/26 11:03:45;;;;;;;35.22;24.95;;;;;;;;;;6195796;28;21706;-65
2021/12/26 11:07:04;;;;;;;37.78;26.58;;;;;;;;;;6211816;28;20088;-65
2021/12/26 11:10:09;;;;;;;33.63;25.80;;;;;;;;;;6227606;28;20069;-65
2021/12/26 11:13:19;;;;;;;34.88;26.40;;;;;;;;;;6229713;28;20052;-65
2021/12/26 11:16:21;;;;;;;37.22;26.20;;;;;;;;;;6212718;28;20037;-66
2021/12/26 11:19:43;;;;;;;35.08;26.13;;;;;;;;;;6235405;28;20081;-65
2021/12/26 11:22:44;;;;;;;33.45;25.88;;;;;;;;;;6202140;28;20073;-65
2021/12/26 11:25:48;;;;;;;33.50;26.27;;;;;;;;;;6210999;28;20555;-65
2021/12/26 11:28:52;;;;;;;34.35;26.50;;;;;;;;;;6228355;28;20061;-65
2021/12/26 11:31:54;;;;;;;34.95;27.35;;;;;;;;;;6184675;28;20054;-65
2021/12/26 11:34:56;;;;;;;36.70;27.00;;;;;;;;;;6216993;28;20041;-65
2021/12/26 11:38:01;;;;;;;36.20;26.52;;;;;;;;;;6209561;28;20148;-65
2021/12/26 11:41:06;;;;;;;36.15;27.33;;;;;;;;;;6215314;28;20061;-65
2021/12/26 11:44:20;;;;;;;37.50;27.52;;;;;;;;;;6218314;28;20157;-65
2021/12/26 11:47:42;;;;;;;35.30;27.67;;;;;;;;;;6198847;28;20416;-65
2021/12/26 11:50:52;;;;;;;37.53;27.00;;;;;;;;;;6215044;28;20069;-65
2021/12/26 11:54:20;;;;;;;34.60;25.77;;;;;;;;;;6224825;28;20502;-65
2021/12/26 11:57:42;;;;;;;38.28;27.70;;;;;;;;;;6215754;28;20053;-65
2021/12/26 12:00:50;;;;;;;37.50;27.98;;;;;;;;;;6204697;28;22398;-66
2021/12/26 12:04:13;;;;;;;39.95;27.85;;;;;;;;;;6222637;28;20517;-65
2021/12/26 12:07:16;;;;;;;36.47;27.15;;;;;;;;;;6200983;28;20125;-65
2021/12/26 12:10:42;;;;;;;39.75;28.70;;;;;;;;;;6187282;28;20125;-65
2021/12/26 12:13:47;;;;;;;38.60;27.98;;;;;;;;;;6193530;28;20054;-65
2021/12/26 12:16:50;;;;;;;35.65;27.25;;;;;;;;;;6176568;28;20046;-65
2021/12/26 12:20:16;;;;;;;37.17;27.75;;;;;;;;;;6212958;28;20140;-66
2021/12/26 12:23:20;;;;;;;37.90;27.33;;;;;;;;;;6200239;28;20042;-65
2021/12/26 12:26:38;;;;;;;38.10;27.67;;;;;;;;;;6187312;28;20094;-65
2021/12/26 12:29:51;;;;;;;38.60;26.85;;;;;;;;;;6208893;28;20049;-65
2021/12/26 12:33:21;;;;;;;37.40;27.05;;;;;;;;;;6180648;28;20046;-65
2021/12/26 12:36:27;;;;;;;40.25;27.95;;;;;;;;;;6194539;28;20387;-65
2021/12/26 12:39:30;;;;;;;37.70;27.17;;;;;;;;;;6203419;28;20089;-66
2021/12/26 12:42:33;;;;;;;35.83;26.77;;;;;;;;;;6185960;28;20043;-65
2021/12/26 12:46:01;;;;;;;37.88;26.98;;;;;;;;;;6203414;28;20448;-65
2021/12/26 12:49:06;;;;;;;42.45;27.85;;;;;;;;;;6201579;28;20044;-65
2021/12/26 12:52:08;;;;;;;37.20;26.73;;;;;;;;;;6213063;28;20065;-64
2021/12/26 12:55:13;;;;;;;41.58;28.13;;;;;;;;;;6212268;28;20230;-65
2021/12/26 12:58:20;;;;;;;38.60;28.08;;;;;;;;;;6201750;28;20125;-66
2021/12/26 13:01:35;;;;;;;42.55;29.30;;;;;;;;;;6201256;28;20125;-65
2021/12/26 13:04:44;;;;;;;39.78;28.58;;;;;;;;;;6208746;28;20097;-64
2021/12/26 13:07:46;;;;;;;39.90;28.35;;;;;;;;;;6177641;28;20066;-65
2021/12/26 13:10:53;;;;;;;39.10;28.02;;;;;;;;;;6184664;28;20050;-65
2021/12/26 13:13:57;;;;;;;36.35;27.02;;;;;;;;;;6192688;28;20057;-66
2021/12/26 13:16:58;;;;;;;39.90;27.35;;;;;;;;;;6185616;28;20066;-65
2021/12/26 13:20:03;;;;;;;40.60;27.58;;;;;;;;;;6210811;28;20116;-66
2021/12/26 13:23:06;;;;;;;41.97;28.60;;;;;;;;;;6184649;28;20132;-66
2021/12/26 13:26:10;;;;;;;37.53;27.60;;;;;;;;;;6206986;28;20057;-66
2021/12/26 13:29:11;;;;;;;37.88;28.10;;;;;;;;;;6228531;28;20140;-66
2021/12/26 13:32:13;;;;;;;37.30;27.17;;;;;;;;;;6201502;28;20085;-66
2021/12/26 13:35:16;;;;;;;35.08;27.02;;;;;;;;;;6192774;28;20156;-66
2021/12/26 13:38:18;;;;;;;37.88;27.65;;;;;;;;;;6190099;28;20523;-66
2021/12/26 13:41:22;;;;;;;39.45;27.38;;;;;;;;;;6173245;28;20134;-66
2021/12/26 13:44:23;;;;;;;37.90;26.13;;;;;;;;;;6193271;28;20128;-66
2021/12/26 13:47:25;;;;;;;38.00;27.17;;;;;;;;;;6174623;28;20066;-66
2021/12/26 13:50:29;;;;;;;34.55;27.55;;;;;;;;;;6176793;28;20655;-66
2021/12/26 13:53:35;;;;;;;40.78;27.98;;;;;;;;;;6190936;28;20066;-66
2021/12/26 13:56:46;;;;;;;38.35;27.67;;;;;;;;;;6184644;28;20082;-66
2021/12/26 13:59:49;;;;;;;35.55;27.13;;;;;;;;;;6204734;28;20050;-66
2021/12/26 14:02:51;;;;;;;42.53;28.08;;;;;;;;;;6190962;28;20590;-67
2021/12/26 14:05:54;;;;;;;36.17;26.58;;;;;;;;;;6178233;28;20206;-66
2021/12/26 14:08:57;;;;;;;39.70;28.88;;;;;;;;;;6190794;28;20549;-66
2021/12/26 14:11:58;;;;;;;38.97;28.52;;;;;;;;;;6183776;28;20058;-66
2021/12/26 14:15:24;;;;;;;41.33;29.23;;;;;;;;;;6196686;28;20116;-66
2021/12/26 14:18:27;;;;;;;39.95;27.42;;;;;;;;;;6185396;28;20122;-66
2021/12/26 14:21:30;;;;;;;40.65;28.17;;;;;;;;;;6181614;28;20097;-66
2021/12/26 14:24:33;;;;;;;41.63;29.60;;;;;;;;;;6223758;28;20049;-66
2021/12/26 14:27:34;;;;;;;36.70;26.75;;;;;;;;;;6185502;28;20429;-66
2021/12/26 14:30:37;;;;;;;43.38;29.02;;;;;;;;;;6186978;28;20172;-66
2021/12/26 14:33:46;;;;;;;38.80;27.73;;;;;;;;;;6190482;28;20086;-66
2021/12/26 14:36:52;;;;;;;37.22;27.75;;;;;;;;;;6178384;28;20096;-66
2021/12/26 14:39:55;;;;;;;36.90;27.75;;;;;;;;;;6201268;28;20514;-65
2021/12/26 14:42:57;;;;;;;38.78;28.27;;;;;;;;;;6194301;28;20153;-66
2021/12/26 14:46:01;;;;;;;41.78;27.35;;;;;;;;;;6184893;28;20193;-66
2021/12/26 14:49:08;;;;;;;40.78;29.23;;;;;;;;;;6183644;28;20046;-66
2021/12/26 14:52:13;;;;;;;41.08;29.65;;;;;;;;;;6193000;28;20554;-66
2021/12/26 14:55:16;;;;;;;42.03;28.92;;;;;;;;;;6210333;28;20148;-66
2021/12/26 14:58:18;;;;;;;40.95;28.85;;;;;;;;;;6200545;28;20046;-66
2021/12/26 15:01:22;;;;;;;49.05;30.73;;;;;;;;;;6165431;28;20609;-66
2021/12/26 15:04:30;;;;;;;43.30;31.70;;;;;;;;;;6200102;28;20152;-67
2021/12/26 15:07:38;;;;;;;43.65;30.38;;;;;;;;;;6176964;28;20445;-66
2021/12/26 15:10:42;;;;;;;39.75;28.88;;;;;;;;;;6178992;28;20596;-66
2021/12/26 15:13:43;;;;;;;43.90;31.38;;;;;;;;;;6193955;28;20128;-66
2021/12/26 15:16:45;;;;;;;45.83;31.38;;;;;;;;;;6176348;28;20543;-66
2021/12/26 15:19:48;;;;;;;45.92;30.30;;;;;;;;;;6203388;28;20081;-66
2021/12/26 15:22:57;;;;;;;41.90;30.20;;;;;;;;;;6196534;28;20686;-66
2021/12/26 15:26:01;;;;;;;43.22;32.15;;;;;;;;;;6200002;28;20482;-66
2021/12/26 15:29:07;;;;;;;43.92;31.33;;;;;;;;;;6211156;28;21172;-66
2021/12/26 15:32:11;;;;;;;44.80;31.35;;;;;;;;;;6175755;28;20197;-66
2021/12/26 15:35:14;;;;;;;47.63;33.38;;;;;;;;;;6182524;28;20430;-66
2021/12/26 15:38:17;;;;;;;44.88;30.90;;;;;;;;;;6207553;28;20185;-66
2021/12/26 15:41:20;;;;;;;44.28;31.20;;;;;;;;;;6181018;28;20128;-66
2021/12/26 15:44:23;;;;;;;46.17;32.08;;;;;;;;;;6191779;28;20079;-65
2021/12/26 15:47:24;;;;;;;51.33;33.90;;;;;;;;;;6200983;28;20081;-66
2021/12/26 15:50:26;;;;;;;46.47;32.85;;;;;;;;;;6202524;28;20672;-66
2021/12/26 15:53:29;;;;;;;45.45;32.03;;;;;;;;;;6211407;28;20529;-66
2021/12/26 15:56:31;;;;;;;46.92;32.85;;;;;;;;;;6202976;28;20050;-66
2021/12/26 15:59:32;;;;;;;48.50;33.47;;;;;;;;;;6216795;28;20165;-66
2021/12/26 16:02:34;;;;;;;48.53;32.65;;;;;;;;;;6176197;28;20065;-66
2021/12/26 16:05:36;;;;;;;46.90;33.53;;;;;;;;;;6208040;28;20145;-65
2021/12/26 16:08:39;;;;;;;44.63;32.10;;;;;;;;;;6221533;28;20050;-65
2021/12/26 16:11:41;;;;;;;48.60;33.55;;;;;;;;;;6193441;28;20081;-65
2021/12/26 16:14:43;;;;;;;48.78;33.42;;;;;;;;;;6207726;28;20209;-66
2021/12/26 16:17:44;;;;;;;45.80;31.23;;;;;;;;;;6184460;28;20128;-65
2021/12/26 16:20:46;;;;;;;48.85;33.13;;;;;;;;;;6191921;28;20136;-65
2021/12/26 16:23:49;;;;;;;46.08;32.15;;;;;;;;;;6198317;28;20152;-66
2021/12/26 16:26:51;;;;;;;48.25;33.20;;;;;;;;;;6188571;28;20078;-66
2021/12/26 16:29:52;;;;;;;48.13;33.67;;;;;;;;;;6197652;28;20122;-65
2021/12/26 16:32:54;;;;;;;47.25;33.40;;;;;;;;;;6163871;28;20128;-65
2021/12/26 16:35:55;;;;;;;48.65;34.10;;;;;;;;;;6186823;28;20120;-66
2021/12/26 16:38:58;;;;;;;48.80;33.03;;;;;;;;;;6203688;28;20188;-65
2021/12/26 16:42:00;;;;;;;49.22;33.28;;;;;;;;;;6190753;28;20507;-66
2021/12/26 16:45:02;;;;;;;50.00;33.92;;;;;;;;;;6197954;28;20065;-65
2021/12/26 16:48:04;;;;;;;47.80;33.22;;;;;;;;;;6193137;28;20057;-66
2021/12/26 16:51:05;;;;;;;46.97;33.78;;;;;;;;;;6179329;28;20176;-66
2021/12/26 16:54:08;;;;;;;51.05;33.72;;;;;;;;;;6182172;28;20113;-65
2021/12/26 16:57:10;;;;;;;49.17;35.22;;;;;;;;;;6172288;28;20054;-66
2021/12/26 17:00:13;;;;;;;53.17;36.25;;;;;;;;;;6186322;28;20979;-66
2021/12/26 17:03:15;;;;;;;55.97;37.92;;;;;;;;;;6204551;28;20096;-65
2021/12/26 17:06:18;;;;;;;58.40;38.50;;;;;;;;;;6199010;28;20546;-66
2021/12/26 17:09:22;;;;;;;56.22;37.67;;;;;;;;;;6189143;28;20054;-65
2021/12/26 17:12:24;;;;;;;55.00;36.00;;;;;;;;;;6176690;28;20466;-65
2021/12/26 17:15:25;;;;;;;54.65;36.47;;;;;;;;;;6201375;28;20169;-65
2021/12/26 17:18:27;;;;;;;51.88;35.35;;;;;;;;;;6198313;28;20129;-66
2021/12/26 17:21:29;;;;;;;53.00;35.47;;;;;;;;;;6202359;28;20129;-65
2021/12/26 17:24:34;;;;;;;56.15;37.53;;;;;;;;;;6197204;28;20062;-66
2021/12/26 17:27:36;;;;;;;55.40;38.25;;;;;;;;;;6212114;28;20077;-66
2021/12/26 17:30:38;;;;;;;57.90;37.40;;;;;;;;;;6202196;28;20057;-66
2021/12/26 17:33:39;;;;;;;55.28;38.08;;;;;;;;;;6200392;28;20176;-65
2021/12/26 17:36:41;;;;;;;56.75;38.25;;;;;;;;;;6194531;28;20176;-66
2021/12/26 17:39:45;;;;;;;55.97;37.97;;;;;;;;;;6196003;28;20050;-65
2021/12/26 17:42:47;;;;;;;56.53;38.00;;;;;;;;;;6177645;28;20054;-66
2021/12/26 17:45:48;;;;;;;58.17;37.83;;;;;;;;;;6202548;28;20169;-66
2021/12/26 17:48:50;;;;;;;57.55;37.85;;;;;;;;;;6215141;28;20172;-66
2021/12/26 17:51:52;;;;;;;59.38;38.42;;;;;;;;;;6206207;28;20089;-66
2021/12/26 17:54:56;;;;;;;59.25;38.78;;;;;;;;;;6216742;28;20073;-66